Time;durP1;ratioP1;P1;durP2;ratioP2;P2;SDS_P1;SDS_P2;PMS_P1;PMS_P2;Temp;Humidity;BMP_temperature;BMP_pressure;BME280_temperature;BME280_humidity;BME280_pressure;Samples;Min_cycle;Max_cycle;Signal;HPM_P1;HPM_P2
2022/09/12 00:01:08;;;;;;;9.07;7.88;;;15.50;99.90;;;;;;3059433;19;20023;-72
2022/09/12 00:02:12;;;;;;;8.30;7.38;;;15.40;99.90;;;;;;3059924;19;20014;-74
2022/09/12 00:03:13;;;;;;;10.02;8.25;;;15.60;99.90;;;;;;3059830;19;20011;-74
2022/09/12 00:04:17;;;;;;;9.43;8.35;;;15.40;99.90;;;;;;3059215;19;20010;-74
2022/09/12 00:05:18;;;;;;;9.43;8.43;;;15.60;99.90;;;;;;3061662;19;20015;-75
2022/09/12 00:06:25;;;;;;;9.52;7.97;;;15.50;99.90;;;;;;3059776;19;20010;-75
2022/09/12 00:07:26;;;;;;;9.50;8.40;;;15.50;99.90;;;;;;3059922;19;20018;-74
2022/09/12 00:08:30;;;;;;;9.60;8.52;;;15.40;99.90;;;;;;3059172;19;20010;-74
2022/09/12 00:09:31;;;;;;;9.85;8.00;;;15.50;99.90;;;;;;3060929;19;20521;-74
2022/09/12 00:10:38;;;;;;;10.13;8.13;;;15.30;99.90;;;;;;3061663;19;20011;-74
2022/09/12 00:11:44;;;;;;;9.55;8.50;;;15.30;99.90;;;;;;3060260;19;20106;-74
2022/09/12 00:12:48;;;;;;;10.40;8.38;;;16.50;99.90;;;;;;3060189;19;20546;-74
2022/09/12 00:13:50;;;;;;;9.82;8.77;;;15.30;99.90;;;;;;3060750;19;20025;-73
2022/09/12 00:14:54;;;;;;;9.38;8.20;;;15.60;99.90;;;;;;3059615;19;20028;-74
2022/09/12 00:15:55;;;;;;;10.65;8.88;;;15.30;99.90;;;;;;3060715;19;20125;-74
2022/09/12 00:17:00;;;;;;;9.93;8.25;;;15.50;99.90;;;;;;3059904;19;20015;-74
2022/09/12 00:18:01;;;;;;;11.38;9.13;;;15.20;99.90;;;;;;3059380;19;20033;-74
2022/09/12 00:19:06;;;;;;;9.32;8.32;;;15.20;99.90;;;;;;3059550;19;20030;-74
2022/09/12 00:20:09;;;;;;;10.98;8.95;;;15.60;99.90;;;;;;3060167;19;20467;-74
2022/09/12 00:21:14;;;;;;;9.65;8.18;;;15.20;99.90;;;;;;3058450;19;20011;-74
2022/09/12 00:22:15;;;;;;;11.50;8.80;;;15.30;99.90;;;;;;3059839;19;20015;-74
2022/09/12 00:23:19;;;;;;;9.85;8.40;;;15.20;99.90;;;;;;3059699;19;20014;-74
2022/09/12 00:24:20;;;;;;;11.73;9.27;;;15.30;99.90;;;;;;3059755;19;20014;-74
2022/09/12 00:25:24;;;;;;;11.85;9.23;;;15.10;99.90;;;;;;3059999;19;20022;-74
2022/09/12 00:26:26;;;;;;;12.88;9.30;;;15.20;99.90;;;;;;3059650;19;20006;-73
2022/09/12 00:27:32;;;;;;;10.45;8.80;;;15.50;99.90;;;;;;3058556;19;20018;-74
2022/09/12 00:28:35;;;;;;;10.13;8.88;;;15.30;99.90;;;;;;3061634;19;20343;-74
2022/09/12 00:29:39;;;;;;;10.10;8.52;;;15.30;99.90;;;;;;3059327;19;20021;-74
2022/09/12 00:30:42;;;;;;;10.30;8.82;;;15.20;99.90;;;;;;3059742;19;20040;-72
2022/09/12 00:31:46;;;;;;;11.25;9.13;;;15.40;99.90;;;;;;3059570;19;20007;-74
2022/09/12 00:32:49;;;;;;;12.63;9.27;;;15.30;99.90;;;;;;3059651;19;20345;-74
2022/09/12 00:33:54;;;;;;;11.88;9.50;;;15.20;99.90;;;;;;3059245;19;20605;-74
2022/09/12 00:34:55;;;;;;;10.02;8.45;;;15.00;99.90;;;;;;3060317;19;20022;-74
2022/09/12 00:35:59;;;;;;;10.88;9.38;;;15.20;99.90;;;;;;3061130;19;20017;-74
2022/09/12 00:37:00;;;;;;;14.60;8.93;;;15.30;99.90;;;;;;3058860;19;20422;-71
2022/09/12 00:38:05;;;;;;;11.80;9.50;;;15.30;99.90;;;;;;3060222;19;20017;-71
2022/09/12 00:39:07;;;;;;;10.85;9.27;;;15.30;99.90;;;;;;3059131;19;20010;-71
2022/09/12 00:40:12;;;;;;;10.48;8.82;;;15.20;99.90;;;;;;3059495;19;20010;-74
2022/09/12 00:41:17;;;;;;;11.32;9.32;;;15.20;99.90;;;;;;3058558;19;20018;-74
2022/09/12 00:42:21;;;;;;;11.48;9.18;;;15.10;99.90;;;;;;3059474;19;20011;-74
2022/09/12 00:43:37;;;;;;;14.60;9.23;;;15.30;99.90;;;;;;3059151;19;20029;-75
2022/09/12 00:44:53;;;;;;;12.93;9.40;;;15.20;99.90;;;;;;3061374;19;20023;-74
2022/09/12 00:45:55;;;;;;;11.32;8.88;;;15.20;99.90;;;;;;3060385;19;20022;-75
2022/09/12 00:47:03;;;;;;;9.88;8.32;;;15.20;99.90;;;;;;3059231;19;20010;-74
2022/09/12 00:48:05;;;;;;;11.25;9.32;;;15.20;99.90;;;;;;3059176;19;20018;-74
2022/09/12 00:49:12;;;;;;;;;;;15.20;99.90;;;;;;3060221;19;20042;-74
2022/09/12 00:50:15;;;;;;;10.63;8.93;;;15.10;99.90;;;;;;3058436;19;19936;-74
2022/09/12 00:51:20;;;;;;;13.85;8.93;;;15.10;99.90;;;;;;3059712;19;20074;-74
2022/09/12 00:52:27;;;;;;;11.30;9.02;;;15.10;99.90;;;;;;3058597;19;20021;-75
2022/09/12 00:53:31;;;;;;;13.13;9.45;;;15.00;99.90;;;;;;3060247;19;20018;-75
2022/09/12 00:54:35;;;;;;;10.30;8.25;;;17.30;99.90;;;;;;3059148;19;20021;-71
2022/09/12 00:55:43;;;;;;;12.32;9.60;;;15.10;99.90;;;;;;3059398;19;20029;-73
2022/09/12 00:56:47;;;;;;;11.18;9.20;;;15.70;99.90;;;;;;3059084;19;20021;-72
2022/09/12 00:57:55;;;;;;;10.90;8.75;;;15.00;99.90;;;;;;3058937;19;20025;-73
2022/09/12 00:59:04;;;;;;;9.88;8.65;;;15.00;99.90;;;;;;3059210;19;20041;-72
2022/09/12 01:00:14;;;;;;;12.15;9.52;;;14.90;99.90;;;;;;3058977;19;20010;-72
2022/09/12 01:01:16;;;;;;;12.05;9.38;;;15.00;99.90;;;;;;3058984;19;20379;-72
2022/09/12 01:02:21;;;;;;;14.68;9.88;;;14.90;99.90;;;;;;3058154;19;20364;-73
2022/09/12 01:03:24;;;;;;;12.70;9.65;;;15.00;99.90;;;;;;3059224;19;20010;-72
2022/09/12 01:04:29;;;;;;;11.63;9.25;;;14.90;99.90;;;;;;3058674;19;20013;-72
2022/09/12 01:05:34;;;;;;;10.98;9.45;;;14.80;99.90;;;;;;3058650;19;20025;-72
2022/09/12 01:06:42;;;;;;;11.02;9.48;;;14.90;99.90;;;;;;3058909;19;20037;-72
2022/09/12 01:07:47;;;;;;;12.25;9.48;;;14.80;99.90;;;;;;3058378;19;22046;-72
2022/09/12 01:08:53;;;;;;;11.10;9.13;;;15.00;99.90;;;;;;3058862;19;20401;-73
2022/09/12 01:09:55;;;;;;;11.65;9.25;;;14.80;99.90;;;;;;3059237;19;20024;-72
2022/09/12 01:10:59;;;;;;;12.52;9.70;;;14.80;99.90;;;;;;3058741;19;20089;-72
2022/09/12 01:12:01;;;;;;;12.48;9.80;;;14.90;99.90;;;;;;3059330;19;20010;-72
2022/09/12 01:13:08;;;;;;;11.55;9.52;;;14.70;99.90;;;;;;3058549;19;20011;-72
2022/09/12 01:14:13;;;;;;;11.65;9.45;;;15.30;99.90;;;;;;3058230;19;20006;-72
2022/09/12 01:15:17;;;;;;;12.77;9.52;;;14.80;99.90;;;;;;3060059;19;20017;-73
2022/09/12 01:16:19;;;;;;;11.48;9.93;;;14.80;99.90;;;;;;3060507;19;20022;-72
2022/09/12 01:17:23;;;;;;;12.38;10.10;;;14.90;99.90;;;;;;3058326;19;20494;-73
2022/09/12 01:18:31;;;;;;;12.00;9.23;;;15.00;99.90;;;;;;3059618;19;20033;-72
2022/09/12 01:20:10;;;;;;;12.95;10.02;;;14.90;99.90;;;;;;3058822;19;20017;-72
2022/09/12 01:21:24;;;;;;;12.45;9.65;;;14.90;99.90;;;;;;3056131;19;20014;-72
2022/09/12 01:22:46;;;;;;;11.93;9.93;;;15.00;99.90;;;;;;3059016;19;20019;-72
2022/09/12 01:24:20;;;;;;;15.07;10.17;;;14.80;99.90;;;;;;3057918;19;20347;-72
2022/09/12 01:25:32;;;;;;;13.18;10.27;;;14.90;99.90;;;;;;3058585;19;20479;-72
2022/09/12 01:27:06;;;;;;;13.73;9.68;;;14.50;99.90;;;;;;3060631;19;20360;-73
2022/09/12 01:28:30;;;;;;;13.77;9.82;;;14.70;99.90;;;;;;3059437;19;20082;-72
2022/09/12 01:29:55;;;;;;;12.25;9.52;;;14.80;99.90;;;;;;3058462;19;20036;-74
2022/09/12 01:31:07;;;;;;;11.98;9.95;;;14.60;99.90;;;;;;3059584;19;20025;-73
2022/09/12 01:32:15;;;;;;;11.23;9.57;;;14.80;99.90;;;;;;3060599;19;20006;-73
2022/09/12 01:33:37;;;;;;;12.52;9.73;;;14.60;99.90;;;;;;3058839;19;20257;-73
2022/09/12 01:34:44;;;;;;;13.05;10.20;;;14.70;99.90;;;;;;3058652;19;20014;-72
2022/09/12 01:35:59;;;;;;;11.95;10.13;;;14.80;99.90;;;;;;3057351;19;20021;-74
2022/09/12 01:37:05;;;;;;;13.25;9.88;;;14.60;99.90;;;;;;3058981;19;20006;-73
2022/09/12 01:38:16;;;;;;;12.45;10.10;;;14.70;99.90;;;;;;3058302;19;20006;-72
2022/09/12 01:39:28;;;;;;;13.85;10.93;;;14.80;99.90;;;;;;3058960;19;20022;-74
2022/09/12 01:40:42;;;;;;;14.20;10.60;;;14.60;99.90;;;;;;3057588;19;20617;-73
2022/09/12 01:41:52;;;;;;;12.52;9.88;;;14.80;99.90;;;;;;3058607;19;20041;-74
2022/09/12 01:43:04;;;;;;;13.98;10.30;;;14.60;99.90;;;;;;3058784;19;20355;-73
2022/09/12 01:44:14;;;;;;;12.45;10.05;;;14.70;99.90;;;;;;3058393;19;20015;-73
2022/09/12 01:45:23;;;;;;;12.52;10.07;;;14.70;99.90;;;;;;3058940;19;20070;-73
2022/09/12 01:46:32;;;;;;;12.82;10.70;;;14.50;99.90;;;;;;3058862;19;20023;-73
2022/09/12 01:47:42;;;;;;;14.05;10.93;;;14.50;99.90;;;;;;3058444;19;20002;-73
2022/09/12 01:48:50;;;;;;;13.50;11.15;;;14.60;99.90;;;;;;3058207;19;20030;-72
2022/09/12 01:50:00;;;;;;;13.90;11.00;;;14.40;99.90;;;;;;3058622;19;20391;-73
2022/09/12 01:51:07;;;;;;;12.20;10.40;;;14.50;99.90;;;;;;3057442;19;20373;-73
2022/09/12 01:52:17;;;;;;;12.35;10.27;;;14.40;99.90;;;;;;3059088;19;20018;-73
2022/09/12 01:53:25;;;;;;;15.80;10.68;;;14.50;99.90;;;;;;3057840;19;20014;-73
2022/09/12 01:54:32;;;;;;;14.27;10.32;;;14.60;99.90;;;;;;3057873;19;20014;-73
2022/09/12 01:55:42;;;;;;;14.55;11.07;;;14.50;99.90;;;;;;3058535;19;20486;-73
2022/09/12 01:56:46;;;;;;;13.23;10.93;;;14.40;99.90;;;;;;3060117;19;20027;-74
2022/09/12 01:57:56;;;;;;;14.98;10.70;;;14.50;99.90;;;;;;3059156;19;20011;-74
2022/09/12 01:59:02;;;;;;;14.07;10.50;;;14.50;99.90;;;;;;3058127;19;20010;-74
2022/09/12 02:00:11;;;;;;;13.07;10.25;;;14.50;99.90;;;;;;3058025;19;20340;-73
2022/09/12 02:01:16;;;;;;;14.95;11.07;;;14.30;99.90;;;;;;3058518;19;20036;-73
2022/09/12 02:02:27;;;;;;;15.68;11.82;;;14.40;99.90;;;;;;3057599;19;20010;-73
2022/09/12 02:03:32;;;;;;;13.93;11.43;;;14.40;99.90;;;;;;3058209;19;20002;-73
2022/09/12 02:04:42;;;;;;;14.57;11.27;;;14.50;99.90;;;;;;3058326;19;20003;-73
2022/09/12 02:05:48;;;;;;;12.93;10.82;;;14.30;99.90;;;;;;3058548;19;20028;-73
2022/09/12 02:06:57;;;;;;;13.55;10.75;;;14.40;99.90;;;;;;3057332;19;20054;-73
2022/09/12 02:08:05;;;;;;;13.23;10.93;;;14.40;99.90;;;;;;3057945;19;20372;-73
2022/09/12 02:09:14;;;;;;;13.32;11.23;;;14.50;99.90;;;;;;3058809;19;20489;-73
2022/09/12 02:10:18;;;;;;;14.63;11.10;;;14.30;99.90;;;;;;3058452;19;20015;-73
2022/09/12 02:11:23;;;;;;;13.27;11.25;;;14.50;99.90;;;;;;3057734;19;20015;-73
2022/09/12 02:12:30;;;;;;;18.98;11.38;;;14.30;99.90;;;;;;3058438;19;20085;-73
2022/09/12 02:13:39;;;;;;;15.25;11.98;;;14.30;99.90;;;;;;3057277;19;20047;-73
2022/09/12 02:14:45;;;;;;;14.20;11.77;;;14.30;99.90;;;;;;3057483;19;20022;-73
2022/09/12 02:15:54;;;;;;;15.85;12.00;;;14.20;99.90;;;;;;3057062;19;20018;-73
2022/09/12 02:17:01;;;;;;;15.57;11.63;;;14.20;99.90;;;;;;3056711;19;20385;-73
2022/09/12 02:18:08;;;;;;;13.82;10.82;;;14.10;99.90;;;;;;3058730;19;20022;-73
2022/09/12 02:19:14;;;;;;;17.90;11.43;;;14.20;99.90;;;;;;3058061;19;20002;-73
2022/09/12 02:20:22;;;;;;;15.30;11.40;;;14.30;99.90;;;;;;3058073;19;20053;-73
2022/09/12 02:21:26;;;;;;;14.40;11.68;;;14.10;99.90;;;;;;3057680;19;20021;-73
2022/09/12 02:22:33;;;;;;;13.85;10.93;;;14.00;99.90;;;;;;3058259;19;20010;-73
2022/09/12 02:23:40;;;;;;;15.05;11.82;;;14.00;99.90;;;;;;3057838;19;20010;-73
2022/09/12 02:24:47;;;;;;;14.52;11.65;;;15.10;99.90;;;;;;3059409;19;20014;-73
2022/09/12 02:25:53;;;;;;;16.17;12.00;;;14.20;99.90;;;;;;3056879;19;20359;-73
2022/09/12 02:27:01;;;;;;;14.55;11.77;;;14.20;99.90;;;;;;3057464;19;20059;-73
2022/09/12 02:28:07;;;;;;;14.52;11.43;;;14.20;99.90;;;;;;3058104;19;20029;-73
2022/09/12 02:29:11;;;;;;;15.30;12.05;;;14.40;99.90;;;;;;3058011;19;20081;-73
2022/09/12 02:30:15;;;;;;;16.48;12.48;;;14.20;99.90;;;;;;3057683;19;20015;-73
2022/09/12 02:31:25;;;;;;;16.80;12.05;;;14.40;99.90;;;;;;3058251;19;20041;-73
2022/09/12 02:32:32;;;;;;;16.58;11.85;;;14.20;99.90;;;;;;3055936;19;20351;-73
2022/09/12 02:33:46;;;;;;;15.60;12.07;;;14.30;99.90;;;;;;3059429;19;20033;-73
2022/09/12 02:34:54;;;;;;;13.70;11.23;;;14.20;99.90;;;;;;3058360;19;20035;-73
2022/09/12 02:36:02;;;;;;;15.48;11.82;;;14.20;99.90;;;;;;3057855;19;20010;-73
2022/09/12 02:37:11;;;;;;;16.45;11.98;;;14.10;99.90;;;;;;3058392;19;20080;-73
2022/09/12 02:38:26;;;;;;;18.48;12.00;;;14.20;99.90;;;;;;3058794;19;20042;-73
2022/09/12 02:39:27;;;;;;;14.50;12.02;;;14.00;99.90;;;;;;3058164;19;20007;-73
2022/09/12 02:40:32;;;;;;;18.02;11.90;;;14.20;99.90;;;;;;3057851;19;20400;-73
2022/09/12 02:41:34;;;;;;;15.63;11.30;;;14.20;99.90;;;;;;3057967;19;20014;-73
2022/09/12 02:42:38;;;;;;;13.70;11.55;;;15.40;99.90;;;;;;3056938;19;20597;-73
2022/09/12 02:43:40;;;;;;;16.45;11.98;;;14.10;99.90;;;;;;3059908;19;20014;-73
2022/09/12 02:44:44;;;;;;;17.33;11.68;;;14.10;99.90;;;;;;3055840;19;20017;-73
2022/09/12 02:45:45;;;;;;;16.48;12.82;;;14.00;99.90;;;;;;3059764;19;20022;-73
2022/09/12 02:46:53;;;;;;;16.17;12.20;;;14.00;99.90;;;;;;3057203;19;20006;-73
2022/09/12 02:47:59;;;;;;;16.17;12.40;;;13.40;99.90;;;;;;3058312;19;20015;-73
2022/09/12 02:49:05;;;;;;;16.83;13.18;;;13.90;99.90;;;;;;3057565;19;20078;-73
2022/09/12 02:50:07;;;;;;;17.65;13.57;;;14.10;99.90;;;;;;3057999;19;20007;-73
2022/09/12 02:51:12;;;;;;;16.00;12.20;;;14.00;99.90;;;;;;3057898;19;20038;-72
2022/09/12 02:52:13;;;;;;;16.45;12.70;;;14.00;99.90;;;;;;3057968;19;20017;-74
2022/09/12 02:53:17;;;;;;;18.33;12.23;;;13.90;99.90;;;;;;3057501;19;20095;-73
2022/09/12 02:54:20;;;;;;;19.25;13.32;;;13.90;99.90;;;;;;3057780;19;20013;-73
2022/09/12 02:55:24;;;;;;;16.80;12.25;;;14.10;99.90;;;;;;3057400;19;20014;-73
2022/09/12 02:56:27;;;;;;;17.10;12.75;;;14.20;99.90;;;;;;3057814;19;20013;-73
2022/09/12 02:57:32;;;;;;;15.38;11.88;;;14.00;99.90;;;;;;3057587;19;20007;-73
2022/09/12 02:58:33;;;;;;;17.90;12.75;;;14.10;99.90;;;;;;3057489;19;20015;-73
2022/09/12 02:59:37;;;;;;;;;;;14.10;99.90;;;;;;3057932;19;20017;-73
2022/09/12 03:00:46;;;;;;;18.77;12.93;;;13.60;99.90;;;;;;3059034;19;19918;-73
2022/09/12 03:02:11;;;;;;;16.98;12.38;;;12.30;99.90;;;;;;3057937;19;20010;-73
2022/09/12 03:03:26;;;;;;;15.90;11.90;;;14.00;99.90;;;;;;3057752;19;20002;-74
2022/09/12 03:05:00;;;;;;;17.55;12.73;;;13.80;99.90;;;;;;3057522;19;20038;-72
2022/09/12 03:06:06;;;;;;;17.00;11.93;;;14.00;99.90;;;;;;3057698;19;20495;-73
2022/09/12 03:07:17;;;;;;;16.50;12.25;;;14.00;99.90;;;;;;3057697;19;20025;-72
2022/09/12 03:08:50;;;;;;;16.50;12.70;;;14.20;99.90;;;;;;3057837;19;19999;-73
2022/09/12 03:10:04;;;;;;;17.58;12.00;;;13.90;99.90;;;;;;3057830;19;20040;-73
2022/09/12 03:11:40;;;;;;;16.45;12.45;;;13.80;99.90;;;;;;3058099;19;20082;-75
2022/09/12 03:12:52;;;;;;;17.63;12.13;;;13.80;99.90;;;;;;3057382;19;20483;-73
2022/09/12 03:14:05;;;;;;;18.95;12.43;;;13.90;99.90;;;;;;3057858;19;20490;-74
2022/09/12 03:15:24;;;;;;;17.95;12.63;;;13.90;99.90;;;;;;3060116;19;20015;-74
2022/09/12 03:16:32;;;;;;;18.15;12.85;;;13.80;99.90;;;;;;3060882;19;20010;-73
2022/09/12 03:17:48;;;;;;;19.30;12.88;;;13.70;99.90;;;;;;3061224;19;20479;-73
2022/09/12 03:18:57;;;;;;;18.17;12.13;;;13.70;99.90;;;;;;3060367;19;20018;-73
2022/09/12 03:20:11;;;;;;;19.38;12.82;;;13.60;99.90;;;;;;3060321;19;20010;-73
2022/09/12 03:21:19;;;;;;;20.00;13.32;;;13.70;99.90;;;;;;3060559;19;20006;-73
2022/09/12 03:22:30;;;;;;;19.05;13.27;;;13.70;99.90;;;;;;3060218;19;20014;-74
2022/09/12 03:23:37;;;;;;;18.70;12.68;;;13.70;99.90;;;;;;3060872;19;20017;-73
2022/09/12 03:24:49;;;;;;;18.08;13.27;;;13.80;99.90;;;;;;3060091;19;20021;-73
2022/09/12 03:25:53;;;;;;;;;;;13.80;99.90;;;;;;3061288;19;20018;-73
2022/09/12 03:27:02;;;;;;;17.17;11.95;;;13.60;99.90;;;;;;3060207;19;19915;-73
2022/09/12 03:28:08;;;;;;;16.85;13.10;;;13.70;99.90;;;;;;3060226;19;20010;-73
2022/09/12 03:29:14;;;;;;;15.80;12.55;;;13.90;99.90;;;;;;3060504;19;20029;-73
2022/09/12 03:30:15;;;;;;;17.15;11.95;;;13.70;99.90;;;;;;3060501;19;20023;-73
2022/09/12 03:31:21;;;;;;;16.98;13.52;;;13.70;99.90;;;;;;3060931;19;20006;-73
2022/09/12 03:32:44;;;;;;;18.73;13.75;;;13.60;99.90;;;;;;3062956;19;20021;-73
2022/09/12 03:33:48;;;;;;;16.83;13.00;;;13.80;99.90;;;;;;3064223;19;20463;-73
2022/09/12 03:34:50;;;;;;;18.80;13.30;;;13.60;99.90;;;;;;3060351;19;20491;-73
2022/09/12 03:35:57;;;;;;;17.88;12.95;;;13.60;99.90;;;;;;3060988;19;20003;-73
2022/09/12 03:37:01;;;;;;;19.33;13.07;;;14.60;99.90;;;;;;3060423;19;20018;-73
2022/09/12 03:38:03;;;;;;;20.10;14.07;;;13.70;99.90;;;;;;3060584;19;20013;-73
2022/09/12 03:39:06;;;;;;;18.08;12.75;;;13.90;99.90;;;;;;3059658;19;20007;-74
2022/09/12 03:40:10;;;;;;;20.35;13.30;;;13.60;99.90;;;;;;3061933;19;20459;-73
2022/09/12 03:41:14;;;;;;;19.75;13.18;;;13.80;99.90;;;;;;3060322;19;20033;-74
2022/09/12 03:42:15;;;;;;;18.05;13.38;;;13.70;99.90;;;;;;3058222;19;20014;-73
2022/09/12 03:43:19;;;;;;;18.60;13.55;;;13.70;99.90;;;;;;3059994;19;20011;-73
2022/09/12 03:44:21;;;;;;;17.58;13.10;;;13.50;99.90;;;;;;3060002;19;20431;-73
2022/09/12 03:45:24;;;;;;;18.52;13.98;;;13.60;99.90;;;;;;3060049;19;20006;-73
2022/09/12 03:46:26;;;;;;;19.83;13.05;;;13.60;99.90;;;;;;3060274;19;20014;-73
2022/09/12 03:47:30;;;;;;;19.85;14.40;;;13.60;99.90;;;;;;3059784;19;20350;-73
2022/09/12 03:48:31;;;;;;;20.30;14.27;;;13.10;99.90;;;;;;3059103;19;20100;-73
2022/09/12 03:49:35;;;;;;;18.45;12.63;;;13.50;99.90;;;;;;3061680;19;20015;-74
2022/09/12 03:50:39;;;;;;;17.30;12.85;;;13.50;99.90;;;;;;3060063;19;20009;-73
2022/09/12 03:51:42;;;;;;;19.20;12.85;;;13.40;99.90;;;;;;3061813;19;20011;-73
2022/09/12 03:52:46;;;;;;;19.60;13.05;;;13.50;99.90;;;;;;3060028;19;20007;-73
2022/09/12 03:53:48;;;;;;;20.48;13.15;;;14.40;99.90;;;;;;3059167;19;20010;-73
2022/09/12 03:54:52;;;;;;;18.70;12.48;;;13.60;99.90;;;;;;3060455;19;20085;-73
2022/09/12 03:55:53;;;;;;;19.05;13.00;;;13.70;99.90;;;;;;3061466;19;20011;-72
2022/09/12 03:56:57;;;;;;;19.30;14.05;;;13.50;99.90;;;;;;3060136;19;20011;-73
2022/09/12 03:57:58;;;;;;;17.73;12.85;;;13.40;99.90;;;;;;3060150;19;20019;-73
2022/09/12 03:59:02;;;;;;;18.65;13.73;;;13.40;99.90;;;;;;3059909;19;20466;-72
2022/09/12 04:00:05;;;;;;;21.63;13.57;;;13.30;99.90;;;;;;3059835;19;20016;-73
2022/09/12 04:01:11;;;;;;;19.27;13.70;;;13.30;99.90;;;;;;3059419;19;20027;-73
2022/09/12 04:02:13;;;;;;;21.23;14.35;;;13.60;99.90;;;;;;3058881;19;20014;-72
2022/09/12 04:03:18;;;;;;;20.77;14.85;;;14.30;99.90;;;;;;3061343;19;20038;-73
2022/09/12 04:04:19;;;;;;;19.20;13.63;;;13.40;99.90;;;;;;3059281;19;20015;-73
2022/09/12 04:05:23;;;;;;;21.73;14.57;;;13.50;99.90;;;;;;3060088;19;20356;-73
2022/09/12 04:06:24;;;;;;;20.17;14.95;;;13.30;99.90;;;;;;3060513;19;20018;-72
2022/09/12 04:07:31;;;;;;;21.52;15.10;;;13.30;99.90;;;;;;3059620;19;20375;-73
2022/09/12 04:08:32;;;;;;;20.90;14.80;;;13.30;99.90;;;;;;3061514;19;20006;-74
2022/09/12 04:09:36;;;;;;;19.23;14.13;;;13.20;99.90;;;;;;3059933;19;20042;-73
2022/09/12 04:10:37;;;;;;;21.55;15.18;;;13.10;99.90;;;;;;3059535;19;20363;-73
2022/09/12 04:11:41;;;;;;;23.35;15.55;;;13.20;99.90;;;;;;3060044;19;20011;-73
2022/09/12 04:12:43;;;;;;;23.08;15.10;;;13.00;99.90;;;;;;3059625;19;20059;-73
2022/09/12 04:13:48;;;;;;;23.15;15.25;;;14.30;99.90;;;;;;3059698;19;20014;-73
2022/09/12 04:14:49;;;;;;;20.70;15.82;;;13.30;99.90;;;;;;3059772;19;20036;-73
2022/09/12 04:16:03;;;;;;;23.58;15.80;;;13.20;99.90;;;;;;3059609;19;20022;-73
2022/09/12 04:17:04;;;;;;;23.88;16.92;;;13.30;99.90;;;;;;3059320;19;20006;-72
2022/09/12 04:18:08;;;;;;;22.38;16.17;;;13.40;99.90;;;;;;3060411;19;20014;-73
2022/09/12 04:19:10;;;;;;;23.27;16.60;;;13.30;99.90;;;;;;3057734;19;20042;-74
2022/09/12 04:20:14;;;;;;;;;;;13.20;99.90;;;;;;3061158;19;20018;-73
2022/09/12 04:21:18;;;;;;;24.58;16.25;;;13.10;99.90;;;;;;3059675;19;20263;-73
2022/09/12 04:22:22;;;;;;;24.63;16.63;;;13.20;99.90;;;;;;3059775;19;19999;-74
2022/09/12 04:23:25;;;;;;;26.42;17.67;;;13.20;99.90;;;;;;3059611;19;20007;-73
2022/09/12 04:24:29;;;;;;;23.65;16.35;;;14.40;99.90;;;;;;3059332;19;20010;-73
2022/09/12 04:25:31;;;;;;;26.88;17.77;;;13.30;99.90;;;;;;3060241;19;20489;-74
2022/09/12 04:26:35;;;;;;;26.38;17.33;;;13.40;99.90;;;;;;3060259;19;20022;-73
2022/09/12 04:27:36;;;;;;;23.77;16.92;;;13.20;99.90;;;;;;3059901;19;20069;-73
2022/09/12 04:28:40;;;;;;;25.90;17.15;;;13.70;99.90;;;;;;3059076;19;20384;-73
2022/09/12 04:29:42;;;;;;;24.50;16.42;;;13.40;99.90;;;;;;3059864;19;20019;-73
2022/09/12 04:30:46;;;;;;;25.30;16.95;;;13.50;99.90;;;;;;3059564;19;20413;-73
2022/09/12 04:31:48;;;;;;;25.02;17.33;;;13.30;99.90;;;;;;3060096;19;20396;-73
2022/09/12 04:32:52;;;;;;;23.90;17.02;;;13.30;99.90;;;;;;3059513;19;20026;-73
2022/09/12 04:33:54;;;;;;;24.98;16.58;;;13.50;99.90;;;;;;3059744;19;20467;-72
2022/09/12 04:34:58;;;;;;;24.88;17.38;;;13.40;99.90;;;;;;3059566;19;20073;-73
2022/09/12 04:36:04;;;;;;;26.08;17.33;;;13.10;99.90;;;;;;3059098;19;20035;-73
2022/09/12 04:37:08;;;;;;;26.80;18.77;;;13.30;99.90;;;;;;3059672;19;20014;-73
2022/09/12 04:38:09;;;;;;;27.83;17.92;;;13.30;99.90;;;;;;3058877;19;20018;-73
2022/09/12 04:39:15;;;;;;;25.38;16.92;;;13.40;99.90;;;;;;3060821;19;20024;-73
2022/09/12 04:40:17;;;;;;;26.35;17.90;;;14.50;99.90;;;;;;3059604;19;20141;-73
2022/09/12 04:41:23;;;;;;;24.45;17.45;;;14.10;99.90;;;;;;3060083;19;20078;-73
2022/09/12 04:42:24;;;;;;;29.25;18.15;;;13.30;99.90;;;;;;3059524;19;20074;-72
2022/09/12 04:43:28;;;;;;;27.65;17.80;;;13.50;99.90;;;;;;3058996;19;20037;-74
2022/09/12 04:44:30;;;;;;;26.90;17.15;;;13.40;99.90;;;;;;3059028;19;20022;-73
2022/09/12 04:45:34;;;;;;;21.70;15.88;;;13.40;99.90;;;;;;3060654;19;20092;-73
2022/09/12 04:46:37;;;;;;;25.23;17.23;;;13.30;99.90;;;;;;3059928;19;20033;-73
2022/09/12 04:47:41;;;;;;;27.42;17.23;;;13.10;99.90;;;;;;3059229;19;20090;-73
2022/09/12 04:48:42;;;;;;;26.95;17.55;;;13.50;99.90;;;;;;3059826;19;20014;-73
2022/09/12 04:49:46;;;;;;;25.40;17.30;;;13.50;99.90;;;;;;3058159;19;20018;-73
2022/09/12 04:50:47;;;;;;;28.00;18.42;;;13.40;99.90;;;;;;3059549;19;20019;-73
2022/09/12 04:51:55;;;;;;;25.55;16.85;;;13.40;99.90;;;;;;3058579;19;20656;-73
2022/09/12 04:52:59;;;;;;;23.05;16.25;;;13.50;99.90;;;;;;3058572;19;20010;-74
2022/09/12 04:54:04;;;;;;;23.98;16.52;;;13.40;99.90;;;;;;3057152;19;20012;-73
2022/09/12 04:55:09;;;;;;;26.02;17.90;;;13.10;99.90;;;;;;3058265;19;20019;-73
2022/09/12 04:56:13;;;;;;;23.10;16.08;;;13.60;99.90;;;;;;3057698;19;20023;-73
2022/09/12 04:57:17;;;;;;;24.95;17.50;;;13.30;99.90;;;;;;3059409;19;20375;-73
2022/09/12 04:58:18;;;;;;;24.65;16.85;;;13.30;99.90;;;;;;3060721;19;20011;-73
2022/09/12 04:59:23;;;;;;;25.67;17.70;;;13.40;99.90;;;;;;3060169;19;20043;-74
2022/09/12 05:00:24;;;;;;;26.25;17.02;;;13.50;99.90;;;;;;3057831;19;20021;-73
2022/09/12 05:01:30;;;;;;;25.13;17.65;;;13.50;99.90;;;;;;3059115;19;20062;-73
2022/09/12 05:02:32;;;;;;;26.77;18.38;;;13.60;99.90;;;;;;3058541;19;20029;-73
2022/09/12 05:03:37;;;;;;;26.63;17.35;;;13.50;99.90;;;;;;3059648;19;20017;-73
2022/09/12 05:04:39;;;;;;;28.52;17.30;;;13.30;99.90;;;;;;3058951;19;20372;-73
2022/09/12 05:05:43;;;;;;;30.27;17.63;;;13.30;99.90;;;;;;3059182;19;20025;-73
2022/09/12 05:06:46;;;;;;;24.10;17.20;;;13.40;99.90;;;;;;3059335;19;20025;-73
2022/09/12 05:07:50;;;;;;;28.55;18.25;;;13.60;99.90;;;;;;3058437;19;20014;-73
2022/09/12 05:08:52;;;;;;;25.35;16.30;;;13.50;99.90;;;;;;3058885;19;20019;-72
2022/09/12 05:09:56;;;;;;;28.67;18.38;;;13.60;99.90;;;;;;3058748;19;20015;-73
2022/09/12 05:11:02;;;;;;;26.50;18.40;;;13.70;99.90;;;;;;3059552;19;20031;-74
2022/09/12 05:12:07;;;;;;;24.38;16.95;;;13.20;99.90;;;;;;3059311;19;20086;-73
2022/09/12 05:13:08;;;;;;;27.15;17.85;;;13.50;99.90;;;;;;3059059;19;20011;-73
2022/09/12 05:14:12;;;;;;;29.98;19.08;;;13.40;99.90;;;;;;3058942;19;20349;-73
2022/09/12 05:15:14;;;;;;;28.52;18.80;;;13.40;99.90;;;;;;3057349;19;20014;-73
2022/09/12 05:16:19;;;;;;;27.23;18.27;;;13.40;99.90;;;;;;3059114;19;20059;-73
2022/09/12 05:17:21;;;;;;;27.67;18.48;;;13.50;99.90;;;;;;3058297;19;20014;-73
2022/09/12 05:18:25;;;;;;;31.23;18.60;;;13.50;99.90;;;;;;3058794;19;20365;-73
2022/09/12 05:19:27;;;;;;;30.02;19.60;;;13.50;99.90;;;;;;3058936;19;20316;-73
2022/09/12 05:20:30;;;;;;;;;;;13.40;99.90;;;;;;3059400;19;20002;-73
2022/09/12 05:21:32;;;;;;;29.60;17.95;;;13.40;99.90;;;;;;3058162;19;19921;-72
2022/09/12 05:22:36;;;;;;;27.95;18.80;;;13.50;99.90;;;;;;3058937;19;20014;-73
2022/09/12 05:23:37;;;;;;;28.80;19.10;;;13.50;99.90;;;;;;3058872;19;20002;-73
2022/09/12 05:24:42;;;;;;;28.38;19.15;;;13.30;99.90;;;;;;3059392;19;20028;-73
2022/09/12 05:25:48;;;;;;;29.85;18.67;;;13.50;99.90;;;;;;3058754;19;20081;-74
2022/09/12 05:26:55;;;;;;;29.55;18.85;;;13.50;99.90;;;;;;3058501;19;20006;-72
2022/09/12 05:27:56;;;;;;;31.75;19.50;;;13.50;99.90;;;;;;3058972;19;20019;-73
2022/09/12 05:29:00;;;;;;;33.63;19.75;;;13.50;99.90;;;;;;3059783;19;20486;-73
2022/09/12 05:30:05;;;;;;;30.25;19.77;;;13.40;99.90;;;;;;3058886;19;20019;-73
2022/09/12 05:31:09;;;;;;;30.20;19.52;;;13.50;99.90;;;;;;3058392;19;20105;-73
2022/09/12 05:32:14;;;;;;;29.00;19.25;;;13.40;99.90;;;;;;3058675;19;20483;-73
2022/09/12 05:33:15;;;;;;;30.27;19.27;;;13.70;99.90;;;;;;3059169;19;20018;-74
2022/09/12 05:34:19;;;;;;;26.77;19.02;;;13.70;99.90;;;;;;3058439;19;20014;-73
2022/09/12 05:35:21;;;;;;;28.52;18.98;;;13.70;99.90;;;;;;3058560;19;20014;-74
2022/09/12 05:36:26;;;;;;;29.52;19.60;;;13.60;99.90;;;;;;3058630;19;20340;-73
2022/09/12 05:37:27;;;;;;;32.83;19.88;;;13.90;99.90;;;;;;3056844;19;20019;-73